Time;durP1;ratioP1;P1;durP2;ratioP2;P2;SDS_P1;SDS_P2;PMS_P1;PMS_P2;Temp;Humidity;BMP_temperature;BMP_pressure;BME280_temperature;BME280_humidity;BME280_pressure;Samples;Min_cycle;Max_cycle;Signal;HPM_P1;HPM_P2
2021/10/24 00:00:02;;;;;;;11.07;9.63;;;;;;;-1.35;100.00;99294.97;4972703;28;20392;-69
2021/10/24 00:02:31;;;;;;;10.93;9.23;;;;;;;-1.39;100.00;99298.59;4976908;28;20201;-71
2021/10/24 00:05:01;;;;;;;10.40;9.27;;;;;;;-1.40;100.00;99290.84;4973307;28;20499;-70
2021/10/24 00:07:29;;;;;;;8.90;8.20;;;;;;;-1.43;100.00;99299.63;4975762;28;20561;-68
2021/10/24 00:09:57;;;;;;;11.33;10.07;;;;;;;-1.42;100.00;99301.31;4948012;28;20206;-69
2021/10/24 00:12:25;;;;;;;11.17;8.37;;;;;;;-1.44;100.00;99304.84;4941553;28;20602;-70
2021/10/24 00:14:53;;;;;;;9.87;8.87;;;;;;;-1.41;100.00;99305.59;4974296;28;20292;-68
2021/10/24 00:17:21;;;;;;;8.53;7.83;;;;;;;-1.51;100.00;99292.09;4975928;28;20201;-69
2021/10/24 00:19:49;;;;;;;10.77;9.77;;;;;;;-1.56;100.00;99296.59;4973230;28;20428;-70
2021/10/24 00:22:19;;;;;;;9.60;8.60;;;;;;;-1.61;100.00;99288.13;4974212;28;20217;-70
2021/10/24 00:24:47;;;;;;;9.67;8.77;;;;;;;-1.67;100.00;99296.16;4965064;28;20363;-69
2021/10/24 00:27:15;;;;;;;9.80;8.90;;;;;;;-1.72;100.00;99301.50;4943690;28;20756;-70
2021/10/24 00:29:43;;;;;;;11.33;10.13;;;;;;;-1.74;100.00;99303.31;4971462;28;20320;-69
2021/10/24 00:32:11;;;;;;;9.20;8.33;;;;;;;-1.77;100.00;99295.63;4976926;28;20283;-71
2021/10/24 00:34:40;;;;;;;8.97;8.20;;;;;;;-1.81;100.00;99294.88;4971344;28;20438;-68
2021/10/24 00:37:08;;;;;;;10.30;8.77;;;;;;;-1.85;100.00;99306.28;4973872;28;20217;-68
2021/10/24 00:39:37;;;;;;;11.53;8.73;;;;;;;-1.82;100.00;99303.56;4962082;28;20213;-69
2021/10/24 00:42:05;;;;;;;10.00;9.00;;;;;;;-1.86;100.00;99299.38;4981831;28;20210;-69
2021/10/24 00:44:33;;;;;;;9.97;9.07;;;;;;;-1.87;100.00;99296.84;4934655;28;20210;-68
2021/10/24 00:47:04;;;;;;;9.67;8.67;;;;;;;-1.86;100.00;99294.19;4976971;28;20678;-69
2021/10/24 00:49:33;;;;;;;9.60;8.70;;;;;;;-1.92;100.00;99287.44;4972924;28;20213;-68
2021/10/24 00:52:02;;;;;;;9.40;8.60;;;;;;;-1.96;100.00;99285.03;4978741;28;20205;-70
2021/10/24 00:54:30;;;;;;;8.43;7.60;;;;;;;-2.00;100.00;99279.06;4964126;28;20283;-70
2021/10/24 00:57:01;;;;;;;9.23;8.33;;;;;;;-1.97;100.00;99272.94;4976713;28;20225;-71
2021/10/24 00:59:29;;;;;;;12.60;9.10;;;;;;;-2.05;100.00;99278.38;4938637;28;20225;-71
2021/10/24 01:01:57;;;;;;;9.47;8.53;;;;;;;-2.08;100.00;99279.34;4976205;28;20678;-70
2021/10/24 01:04:26;;;;;;;10.07;8.70;;;;;;;-2.13;100.00;99272.59;4972609;28;20206;-70
2021/10/24 01:06:54;;;;;;;9.50;8.43;;;;;;;-2.16;100.00;99270.13;4974958;28;20222;-69
2021/10/24 01:09:24;;;;;;;10.83;9.57;;;;;;;-2.18;100.00;99277.94;4972577;28;20202;-70
2021/10/24 01:11:53;;;;;;;9.40;8.50;;;;;;;-2.17;100.00;99264.06;4960333;28;20209;-68
2021/10/24 01:14:23;;;;;;;9.53;8.73;;;;;;;-2.20;100.00;99261.56;4942415;28;20423;-71
2021/10/24 01:16:51;;;;;;;9.33;8.43;;;;;;;-2.20;100.00;99262.44;4946934;28;20232;-70
2021/10/24 01:19:21;;;;;;;9.90;9.00;;;;;;;-2.25;100.00;99258.28;4969489;28;20709;-69
2021/10/24 01:21:51;;;;;;;11.97;9.10;;;;;;;-2.25;100.00;99250.50;4972662;28;20422;-70
2021/10/24 01:24:19;;;;;;;9.63;8.47;;;;;;;-2.34;100.00;99238.66;4970997;28;20232;-70
2021/10/24 01:26:47;;;;;;;9.43;8.57;;;;;;;-2.40;100.00;99234.53;4971923;28;20690;-70
2021/10/24 01:29:15;;;;;;;9.00;7.93;;;;;;;-2.40;100.00;99239.72;4974802;28;20722;-70
2021/10/24 01:31:43;;;;;;;9.50;8.60;;;;;;;-2.36;100.00;99232.66;4958759;28;20210;-70
2021/10/24 01:34:11;;;;;;;10.30;8.33;;;;;;;-2.34;100.00;99231.72;4956293;28;20233;-71
2021/10/24 01:36:39;;;;;;;8.33;7.53;;;;;;;-2.37;100.00;99234.44;4973816;28;20248;-70
2021/10/24 01:39:09;;;;;;;9.67;8.40;;;;;;;-2.41;100.00;99231.97;4966486;28;20730;-68
2021/10/24 01:41:37;;;;;;;11.93;8.43;;;;;;;-2.45;100.00;99235.59;4973868;28;20209;-69
2021/10/24 01:44:05;;;;;;;8.17;7.47;;;;;;;-2.50;100.00;99239.19;4968264;28;20340;-70
2021/10/24 01:46:33;;;;;;;8.77;7.87;;;;;;;-2.50;100.00;99234.00;4973156;28;20233;-69
2021/10/24 01:49:01;;;;;;;8.93;8.07;;;;;;;-2.51;100.00;99239.22;4938748;28;20813;-71
2021/10/24 01:51:29;;;;;;;10.60;7.97;;;;;;;-2.52;100.00;99240.13;4971488;28;20217;-68
2021/10/24 01:53:57;;;;;;;8.50;7.70;;;;;;;-2.52;100.00;99237.53;4969236;28;20248;-68
2021/10/24 01:56:27;;;;;;;7.83;6.97;;;;;;;-2.54;100.00;99237.59;4973648;28;20244;-69
2021/10/24 01:58:55;;;;;;;8.43;7.57;;;;;;;-2.53;100.00;99231.50;4969132;28;20636;-70
2021/10/24 02:01:23;;;;;;;8.40;7.70;;;;;;;-2.56;100.00;99236.78;4970874;28;20678;-69
2021/10/24 02:03:51;;;;;;;12.40;8.63;;;;;;;-2.59;100.00;99231.72;4939680;28;20210;-70
2021/10/24 02:06:19;;;;;;;7.97;7.27;;;;;;;-2.58;100.00;99227.34;4973490;28;20225;-69
2021/10/24 02:08:47;;;;;;;7.60;6.97;;;;;;;-2.63;100.00;99230.13;4973287;28;20210;-70
2021/10/24 02:11:15;;;;;;;9.37;8.30;;;;;;;-2.68;100.00;99235.44;4973848;28;20406;-69
2021/10/24 02:13:45;;;;;;;11.27;8.23;;;;;;;-2.67;100.00;99234.53;4973176;28;20229;-71
2021/10/24 02:16:16;;;;;;;9.13;8.23;;;;;;;-2.60;100.00;99226.56;4973479;28;21139;-69
2021/10/24 02:18:44;;;;;;;8.30;7.40;;;;;;;-2.66;100.00;99225.00;4959824;28;20210;-71
2021/10/24 02:21:12;;;;;;;10.03;7.97;;;;;;;-2.67;100.00;99231.09;4956027;28;20388;-69
2021/10/24 02:23:41;;;;;;;8.73;7.23;;;;;;;-2.72;100.00;99220.88;4974062;28;20225;-70
2021/10/24 02:26:09;;;;;;;8.60;7.90;;;;;;;-2.73;100.00;99228.69;4972471;28;20553;-69
2021/10/24 02:28:37;;;;;;;8.67;7.83;;;;;;;-2.74;100.00;99217.47;4974387;28;20456;-68
2021/10/24 02:31:07;;;;;;;8.53;7.77;;;;;;;-2.72;100.00;99207.03;4972009;28;20578;-70
2021/10/24 02:33:35;;;;;;;11.47;8.73;;;;;;;-2.74;100.00;99212.28;4974902;28;20300;-70
2021/10/24 02:36:04;;;;;;;9.57;7.90;;;;;;;-2.76;100.00;99212.31;4937870;28;20260;-69
2021/10/24 02:38:32;;;;;;;9.97;7.80;;;;;;;-2.76;100.00;99217.50;4974558;28;20201;-69
2021/10/24 02:41:00;;;;;;;8.90;8.00;;;;;;;-2.80;100.00;99209.91;4970313;28;20494;-69
2021/10/24 02:43:28;;;;;;;9.57;8.67;;;;;;;-2.78;100.00;99213.28;4971995;28;20637;-67
2021/10/24 02:45:56;;;;;;;9.37;8.13;;;;;;;-2.82;100.00;99207.34;4958397;28;20712;-68
2021/10/24 02:48:26;;;;;;;8.07;7.27;;;;;;;-2.86;100.00;99202.28;4968656;28;20221;-70
2021/10/24 02:50:54;;;;;;;8.27;7.47;;;;;;;-2.86;100.00;99210.06;4941736;28;20687;-70
2021/10/24 02:53:22;;;;;;;10.10;7.30;;;;;;;-2.83;100.00;99200.47;4968604;28;20210;-70
2021/10/24 02:55:50;;;;;;;8.07;7.23;;;;;;;-2.82;100.00;99202.16;4972246;28;20237;-68
2021/10/24 02:58:18;;;;;;;7.77;6.97;;;;;;;-2.86;100.00;99191.91;4972830;28;20206;-70
2021/10/24 03:00:46;;;;;;;8.10;7.40;;;;;;;-2.89;100.00;99194.59;4972482;28;20223;-71
2021/10/24 03:03:14;;;;;;;7.57;6.77;;;;;;;-2.88;100.00;99194.56;4972469;28;20300;-70
2021/10/24 03:05:43;;;;;;;7.17;6.57;;;;;;;-2.92;100.00;99193.81;4939074;28;20625;-68
2021/10/24 03:08:11;;;;;;;8.23;7.43;;;;;;;-2.94;100.00;99193.00;4971385;28;20209;-70
2021/10/24 03:10:39;;;;;;;8.03;7.33;;;;;;;-2.94;100.00;99200.78;4972265;28;20312;-70
2021/10/24 03:13:07;;;;;;;7.23;6.53;;;;;;;-2.94;100.00;99190.41;4974927;28;20217;-69
2021/10/24 03:15:35;;;;;;;8.33;7.40;;;;;;;-2.95;100.00;99199.09;4971294;28;20450;-69
2021/10/24 03:18:04;;;;;;;7.80;7.17;;;;;;;-2.94;100.00;99184.41;4973034;28;20210;-69
2021/10/24 03:20:32;;;;;;;8.73;7.20;;;;;;;-3.00;100.00;99188.03;4936755;28;21530;-69
2021/10/24 03:23:01;;;;;;;7.40;6.57;;;;;;;-3.01;100.00;99188.09;4972328;28;20205;-69
2021/10/24 03:25:29;;;;;;;7.70;6.97;;;;;;;-3.02;100.00;99191.59;4937860;28;20804;-69
2021/10/24 03:27:57;;;;;;;7.50;6.87;;;;;;;-3.03;100.00;99185.53;4976992;28;20201;-69
2021/10/24 03:30:26;;;;;;;7.63;6.93;;;;;;;-3.10;100.00;99187.47;4974737;28;20220;-70
2021/10/24 03:32:54;;;;;;;8.13;7.33;;;;;;;-3.12;100.00;99188.44;4976466;28;20504;-70
2021/10/24 03:35:22;;;;;;;7.47;6.87;;;;;;;-3.12;100.00;99191.00;4975325;28;20244;-69
2021/10/24 03:37:50;;;;;;;7.97;7.30;;;;;;;-3.10;100.00;99190.06;4966146;28;20550;-69
2021/10/24 03:40:20;;;;;;;8.27;7.37;;;;;;;-3.14;100.00;99193.66;4944728;28;20304;-70
2021/10/24 03:42:48;;;;;;;7.97;7.07;;;;;;;-3.14;100.00;99191.06;4960287;28;20213;-69
2021/10/24 03:45:16;;;;;;;7.90;7.20;;;;;;;-3.15;100.00;99199.72;4977638;28;20226;-70
2021/10/24 03:47:44;;;;;;;7.63;7.00;;;;;;;-3.16;100.00;99195.44;4972616;28;20221;-69
2021/10/24 03:50:13;;;;;;;10.03;7.70;;;;;;;-3.16;100.00;99189.41;4973373;28;20325;-70
2021/10/24 03:52:41;;;;;;;7.93;7.23;;;;;;;-3.15;100.00;99189.34;4970475;28;20726;-69
2021/10/24 03:55:13;;;;;;;6.83;6.27;;;;;;;-3.14;100.00;99193.66;4973097;28;20237;-69
2021/10/24 03:57:43;;;;;;;8.07;7.27;;;;;;;-3.20;100.00;99194.69;4939318;28;20646;-70
2021/10/24 04:00:12;;;;;;;9.40;7.47;;;;;;;-3.26;100.00;99181.91;4975568;28;20232;-69
2021/10/24 04:02:54;;;;;;;8.10;7.30;;;;;;;-3.26;100.00;99181.91;4972915;28;20453;-69
2021/10/24 04:05:23;;;;;;;9.03;6.90;;;;;;;-3.30;100.00;99180.31;4973172;28;20279;-70
2021/10/24 04:07:52;;;;;;;8.37;7.57;;;;;;;-3.30;100.00;99176.88;4970959;28;21024;-69
2021/10/24 04:10:20;;;;;;;8.40;7.07;;;;;;;-3.32;100.00;99174.31;4974512;28;20224;-70
2021/10/24 04:12:51;;;;;;;8.30;7.40;;;;;;;-3.35;100.00;99177.88;4923233;28;20226;-70
2021/10/24 04:15:20;;;;;;;8.43;7.17;;;;;;;-3.36;100.00;99175.31;4968542;28;20236;-70
2021/10/24 04:17:48;;;;;;;7.90;7.10;;;;;;;-3.37;100.00;99176.22;4976009;28;20214;-69
2021/10/24 04:20:18;;;;;;;7.00;6.40;;;;;;;-3.32;100.00;99179.50;4973841;28;20975;-69
2021/10/24 04:22:47;;;;;;;8.00;7.13;;;;;;;-3.33;100.00;99171.78;4976283;28;20453;-69
2021/10/24 04:25:16;;;;;;;7.47;6.80;;;;;;;-3.35;100.00;99169.22;4965883;28;20229;-70
2021/10/24 04:27:44;;;;;;;8.30;7.50;;;;;;;-3.37;100.00;99174.47;4940953;28;20291;-70
2021/10/24 04:30:14;;;;;;;7.20;6.50;;;;;;;-3.37;100.00;99168.44;4970938;28;20206;-70
2021/10/24 04:32:43;;;;;;;7.60;6.90;;;;;;;-3.33;100.00;99170.03;4971415;28;20199;-70
2021/10/24 04:35:12;;;;;;;9.57;7.30;;;;;;;-3.35;100.00;99172.69;4970387;28;20497;-70
2021/10/24 04:37:40;;;;;;;8.07;7.20;;;;;;;-3.36;100.00;99177.91;4956313;28;20213;-70
2021/10/24 04:40:09;;;;;;;7.30;6.70;;;;;;;-3.37;100.00;99176.22;4944017;28;20465;-70
2021/10/24 04:42:37;;;;;;;7.87;7.10;;;;;;;-3.35;100.00;99184.78;4972071;28;20199;-69
2021/10/24 04:45:07;;;;;;;8.33;7.53;;;;;;;-3.35;100.00;99175.28;4937599;28;20784;-70
2021/10/24 04:47:36;;;;;;;7.57;6.83;;;;;;;-3.29;100.00;99174.22;4973411;28;21149;-70
2021/10/24 04:50:05;;;;;;;8.40;7.43;;;;;;;-3.33;100.00;99171.78;4959854;28;20217;-71
2021/10/24 04:52:33;;;;;;;10.40;8.33;;;;;;;-3.40;100.00;99178.91;4974666;28;20325;-71
2021/10/24 04:55:01;;;;;;;7.77;7.10;;;;;;;-3.40;100.00;99171.13;4963968;28;20536;-68
2021/10/24 04:57:30;;;;;;;7.77;7.13;;;;;;;-3.37;100.00;99168.44;4972242;28;20499;-68
2021/10/24 04:59:58;;;;;;;8.17;7.27;;;;;;;-3.36;100.00;99172.72;4920374;28;20217;-66
2021/10/24 05:02:27;;;;;;;8.20;7.40;;;;;;;-3.42;100.00;99173.75;4954812;28;20791;-66
2021/10/24 05:04:56;;;;;;;8.10;7.30;;;;;;;-3.38;100.00;99167.59;4969996;28;20256;-67
2021/10/24 05:07:25;;;;;;;7.67;6.97;;;;;;;-3.40;100.00;99160.75;4958751;28;20213;-67
2021/10/24 05:09:53;;;;;;;7.20;6.60;;;;;;;-3.43;100.00;99153.91;4953165;28;20405;-69
2021/10/24 05:12:21;;;;;;;7.60;6.80;;;;;;;-3.46;100.00;99163.53;4965757;28;20206;-70
2021/10/24 05:14:49;;;;;;;7.13;6.53;;;;;;;-3.51;100.00;99159.34;4969648;28;20449;-69
2021/10/24 05:17:17;;;;;;;7.90;7.10;;;;;;;-3.52;100.00;99162.84;4938454;28;20402;-69
2021/10/24 05:19:45;;;;;;;8.80;6.83;;;;;;;-3.55;100.00;99160.34;4973542;28;20221;-69
2021/10/24 05:22:15;;;;;;;7.63;6.43;;;;;;;-3.54;100.00;99158.56;4957868;28;20210;-69
2021/10/24 05:24:43;;;;;;;6.73;6.20;;;;;;;-3.56;100.00;99160.38;4961245;28;20863;-69
2021/10/24 05:27:11;;;;;;;7.40;6.57;;;;;;;-3.60;100.00;99151.00;4972144;28;21761;-69
2021/10/24 05:29:39;;;;;;;7.57;6.87;;;;;;;-3.60;100.00;99153.59;4973893;28;20508;-70
2021/10/24 05:32:07;;;;;;;8.03;7.27;;;;;;;-3.65;100.00;99151.97;4906230;28;20228;-70
2021/10/24 05:34:35;;;;;;;7.97;7.10;;;;;;;-3.62;100.00;99148.44;4959867;28;20730;-69
2021/10/24 05:37:04;;;;;;;9.30;8.40;;;;;;;-3.63;100.00;99144.16;4964788;28;20511;-69
2021/10/24 05:39:33;;;;;;;8.40;7.50;;;;;;;-3.63;100.00;99151.91;4966078;28;20418;-70
2021/10/24 05:42:02;;;;;;;7.53;6.83;;;;;;;-3.60;100.00;99145.81;4976332;28;20945;-69
2021/10/24 05:44:30;;;;;;;8.00;7.20;;;;;;;-3.64;100.00;99145.03;4960151;28;20452;-66
2021/10/24 05:46:58;;;;;;;7.27;6.63;;;;;;;-3.64;100.00;99142.44;4936142;28;20464;-68
2021/10/24 05:49:27;;;;;;;8.37;7.50;;;;;;;-3.65;100.00;99149.38;4968124;28;20457;-66
2021/10/24 05:51:55;;;;;;;7.70;6.90;;;;;;;-3.53;100.00;99149.91;4971582;28;20445;-68
2021/10/24 05:54:23;;;;;;;8.93;6.57;;;;;;;-3.58;100.00;99150.06;4960765;28;20484;-67
2021/10/24 05:56:53;;;;;;;7.57;6.87;;;;;;;-3.59;100.00;99145.78;4966995;28;20499;-70
2021/10/24 05:59:21;;;;;;;8.47;7.57;;;;;;;-3.59;100.00;99143.19;4962819;28;21266;-67
2021/10/24 06:01:49;;;;;;;9.47;7.57;;;;;;;-3.60;100.00;99143.22;4973546;28;20791;-69
2021/10/24 06:04:17;;;;;;;7.43;6.83;;;;;;;-3.55;100.00;99141.34;4941366;28;20461;-68
2021/10/24 06:06:45;;;;;;;6.93;6.40;;;;;;;-3.53;100.00;99147.31;4972270;28;20409;-68
2021/10/24 06:09:13;;;;;;;8.33;7.53;;;;;;;-3.54;100.00;99145.63;4972084;28;20831;-67
2021/10/24 06:11:47;;;;;;;8.87;7.93;;;;;;;-3.55;100.00;99149.97;4957657;28;20484;-69
2021/10/24 06:14:17;;;;;;;8.47;7.60;;;;;;;-3.50;100.00;99148.09;4954758;28;20224;-68
2021/10/24 06:16:45;;;;;;;9.07;7.90;;;;;;;-3.37;100.00;99151.16;4952504;28;20595;-69
2021/10/24 06:19:13;;;;;;;10.57;7.83;;;;;;;-3.31;100.00;99152.69;4939387;28;20467;-68
2021/10/24 06:21:41;;;;;;;7.80;7.20;;;;;;;-3.30;100.00;99154.38;4971250;28;20460;-69
2021/10/24 06:24:09;;;;;;;8.67;7.77;;;;;;;-3.25;100.00;99160.25;4971371;28;20484;-67
2021/10/24 06:26:37;;;;;;;7.63;6.93;;;;;;;-3.23;100.00;99160.22;4956643;28;20461;-70
2021/10/24 06:29:07;;;;;;;8.30;7.50;;;;;;;-3.12;100.00;99159.91;4971990;28;20445;-70
2021/10/24 06:31:36;;;;;;;10.17;8.37;;;;;;;-3.09;100.00;99165.81;4959633;28;20455;-68
2021/10/24 06:34:04;;;;;;;7.10;6.40;;;;;;;-3.06;100.00;99164.88;4931372;28;20781;-70
2021/10/24 06:36:33;;;;;;;10.00;8.00;;;;;;;-2.96;100.00;99163.69;4940139;28;20660;-69
2021/10/24 06:39:02;;;;;;;7.97;7.27;;;;;;;-2.79;100.00;99162.28;4952900;28;20453;-68
2021/10/24 06:41:30;;;;;;;8.93;8.07;;;;;;;-2.79;100.00;99162.28;4946516;28;20648;-68
2021/10/24 06:43:58;;;;;;;8.77;7.97;;;;;;;-2.77;100.00;99157.91;4961684;28;20445;-68
2021/10/24 06:46:26;;;;;;;8.73;8.00;;;;;;;-2.80;100.00;99161.44;4963784;28;20225;-69
2021/10/24 06:48:56;;;;;;;10.53;9.37;;;;;;;-2.74;100.00;99162.13;4971165;28;20433;-69
2021/10/24 06:51:24;;;;;;;8.43;7.63;;;;;;;-2.53;100.00;99164.00;4940699;28;20213;-70
2021/10/24 06:53:52;;;;;;;10.40;8.17;;;;;;;-2.52;100.00;99162.25;4970147;28;20696;-68
2021/10/24 06:56:20;;;;;;;8.73;7.93;;;;;;;-2.50;100.00;99161.31;4957109;28;20702;-69
2021/10/24 06:58:48;;;;;;;8.87;7.97;;;;;;;-2.44;100.00;99162.00;4957233;28;20252;-69
2021/10/24 07:01:16;;;;;;;9.43;8.57;;;;;;;-2.37;100.00;99171.25;4965594;28;20766;-69
2021/10/24 07:03:44;;;;;;;8.80;8.00;;;;;;;-2.30;100.00;99167.53;4972354;28;20211;-68
2021/10/24 07:06:14;;;;;;;8.47;7.73;;;;;;;-2.18;100.00;99168.84;4941891;28;20761;-69
2021/10/24 07:08:42;;;;;;;8.77;7.87;;;;;;;-2.10;100.00;99164.22;4971825;28;20964;-67
2021/10/24 07:11:10;;;;;;;11.67;7.93;;;;;;;-1.97;100.00;99174.19;4959130;28;20736;-69
2021/10/24 07:13:39;;;;;;;9.67;8.83;;;;;;;-1.88;100.00;99183.41;4965418;28;20225;-68
2021/10/24 07:16:07;;;;;;;7.80;7.17;;;;;;;-1.80;100.00;99174.41;4964586;28;20237;-69
2021/10/24 07:18:35;;;;;;;8.50;7.80;;;;;;;-1.64;100.00;99173.88;4973150;28;20232;-67
2021/10/24 07:21:03;;;;;;;8.63;7.20;;;;;;;-1.51;100.00;99177.69;4942390;28;20866;-70
2021/10/24 07:23:32;;;;;;;8.70;7.30;;;;;;;-1.32;100.00;99174.38;4973463;28;20210;-68
2021/10/24 07:26:01;;;;;;;11.93;9.20;;;;;;;-1.15;100.00;99173.69;4970302;28;20506;-69
2021/10/24 07:28:29;;;;;;;18.80;11.43;;;;;;;-1.02;100.00;99179.25;4960691;28;20559;-67
2021/10/24 07:31:17;;;;;;;13.20;9.77;;;;;;;-0.90;100.00;99178.78;4967101;28;20522;-68
2021/10/24 07:33:45;;;;;;;9.63;8.07;;;;;;;-0.75;100.00;99173.84;4975060;28;20213;-68
2021/10/24 07:36:13;;;;;;;8.60;7.80;;;;;;;-0.62;100.00;99172.44;4942669;28;20225;-69
2021/10/24 07:38:42;;;;;;;10.00;7.97;;;;;;;-0.45;100.00;99178.69;4977161;28;20700;-68
2021/10/24 07:41:11;;;;;;;7.47;6.87;;;;;;;-0.31;100.00;99170.31;4928698;28;20257;-70
2021/10/24 07:43:39;;;;;;;7.90;7.20;;;;;;;-0.11;100.00;99179.00;4978789;28;20233;-69
2021/10/24 07:46:08;;;;;;;9.33;8.37;;;;;;;0.07;100.00;99179.94;4962285;28;20238;-68
2021/10/24 07:48:36;;;;;;;9.27;8.37;;;;;;;0.24;100.00;99174.84;4978638;28;20214;-71
2021/10/24 07:51:04;;;;;;;8.67;7.93;;;;;;;0.35;100.00;99174.31;4975240;28;20205;-69
2021/10/24 07:53:32;;;;;;;9.37;8.47;;;;;;;0.56;100.00;99174.25;4973852;28;20701;-70
2021/10/24 07:56:02;;;;;;;8.90;7.97;;;;;;;0.67;100.00;99179.00;4942719;28;20234;-69
2021/10/24 07:58:33;;;;;;;8.57;7.80;;;;;;;0.86;100.00;99181.56;4972472;28;20241;-70
2021/10/24 08:01:01;;;;;;;9.60;8.77;;;;;;;1.01;100.00;99180.81;4967036;28;20228;-69
2021/10/24 08:03:29;;;;;;;8.10;7.47;;;;;;;1.15;100.00;99174.94;4957986;28;20305;-68
2021/10/24 08:05:57;;;;;;;8.90;8.00;;;;;;;1.40;100.00;99172.88;4972506;28;20561;-71
2021/10/24 08:08:25;;;;;;;9.87;8.07;;;;;;;1.52;100.00;99169.66;4961386;28;20215;-70
2021/10/24 08:10:53;;;;;;;10.03;7.60;;;;;;;1.66;100.00;99166.31;4927523;28;20651;-70
2021/10/24 08:13:23;;;;;;;7.17;6.53;;;;;;;1.85;100.00;99175.84;4959622;28;20252;-70
2021/10/24 08:15:51;;;;;;;7.73;7.00;;;;;;;1.97;100.00;99164.75;4972838;28;20236;-68
2021/10/24 08:18:19;;;;;;;11.43;7.13;;;;;;;2.09;100.00;99163.25;4949567;28;20514;-71
2021/10/24 08:20:48;;;;;;;12.93;8.93;;;;;;;2.29;100.00;99156.97;4975434;28;20213;-69
2021/10/24 08:23:17;;;;;;;8.77;6.80;;;;;;;2.44;100.00;99152.66;4968047;28;20509;-70
2021/10/24 08:25:45;;;;;;;7.93;7.23;;;;;;;2.60;100.00;99152.66;4971888;28;20238;-71
2021/10/24 08:28:13;;;;;;;6.40;5.90;;;;;;;2.77;100.00;99158.72;4925923;28;20447;-70
2021/10/24 08:30:43;;;;;;;7.20;6.43;;;;;;;2.89;100.00;99154.59;4974099;28;20206;-69
2021/10/24 08:33:12;;;;;;;5.70;5.30;;;;;;;3.29;100.00;99154.91;4960656;28;20213;-67
2021/10/24 08:35:40;;;;;;;5.83;5.23;;;;;;;3.40;100.00;99156.06;4961701;28;20583;-67
2021/10/24 08:38:08;;;;;;;9.93;4.70;;;;;;;3.43;100.00;99151.50;4965568;28;20234;-66
2021/10/24 08:40:39;;;;;;;4.77;4.27;;;;;;;3.52;100.00;99144.03;4967103;28;20577;-70
2021/10/24 08:43:16;;;;;;;5.07;4.60;;;;;;;3.64;100.00;99148.56;4931953;28;20745;-69
2021/10/24 08:45:46;;;;;;;5.97;5.07;;;;;;;3.94;100.00;99144.19;4967043;28;20275;-68
2021/10/24 08:48:15;;;;;;;5.10;4.43;;;;;;;4.17;100.00;99146.25;4958517;28;20665;-70
2021/10/24 08:50:47;;;;;;;4.97;4.20;;;;;;;4.35;100.00;99154.72;4972287;28;20205;-69
2021/10/24 08:53:18;;;;;;;5.53;3.83;;;;;;;4.52;100.00;99142.34;4969220;28;20723;-69
2021/10/24 08:55:46;;;;;;;4.37;3.97;;;;;;;4.54;100.00;99143.09;4972565;28;20759;-70
2021/10/24 08:58:15;;;;;;;5.97;5.30;;;;;;;4.74;100.00;99147.06;4929130;28;20233;-70
2021/10/24 09:00:49;;;;;;;5.50;4.20;;;;;;;4.84;100.00;99138.59;4971691;28;20523;-70
2021/10/24 09:03:17;;;;;;;5.40;4.97;;;;;;;5.14;100.00;99133.13;4963160;28;20328;-71
2021/10/24 09:05:46;;;;;;;5.27;4.77;;;;;;;5.15;100.00;99133.97;4974581;28;20236;-68
2021/10/24 09:08:16;;;;;;;5.47;4.53;;;;;;;5.25;100.00;99128.94;4969970;28;20412;-68
2021/10/24 09:10:46;;;;;;;4.93;4.53;;;;;;;5.39;100.00;99126.22;4972905;28;20213;-69
2021/10/24 09:13:16;;;;;;;6.53;5.83;;;;;;;5.53;100.00;99117.41;4939056;28;20213;-70
2021/10/24 09:15:51;;;;;;;5.53;5.13;;;;;;;5.72;100.00;99117.00;4964093;28;20237;-67
2021/10/24 09:18:21;;;;;;;3.93;3.70;;;;;;;5.93;100.00;99112.03;4963938;28;20879;-69
2021/10/24 09:20:53;;;;;;;5.67;4.57;;;;;;;6.06;100.00;99101.53;4975331;28;20291;-70
2021/10/24 09:23:22;;;;;;;8.77;5.73;;;;;;;6.17;100.00;99099.91;4974497;28;20801;-69
2021/10/24 09:25:55;;;;;;;9.10;5.27;;;;;;;6.64;100.00;99110.63;4975939;28;20235;-69
2021/10/24 09:28:26;;;;;;;7.00;3.83;;;;;;;6.78;100.00;99099.94;4972251;28;20209;-68
2021/10/24 09:31:05;;;;;;;3.50;2.93;;;;;;;6.86;100.00;99098.53;4928911;28;20213;-69
2021/10/24 09:33:44;;;;;;;4.87;2.60;;;;;;;7.21;100.00;99100.34;4966395;28;20304;-70
2021/10/24 09:36:13;;;;;;;3.83;3.13;;;;;;;7.37;100.00;99092.94;4965144;28;20253;-69
2021/10/24 09:38:43;;;;;;;2.47;2.27;;;;;;;7.66;100.00;99089.03;4973092;28;20221;-68
2021/10/24 09:41:12;;;;;;;3.10;2.80;;;;;;;7.78;100.00;99090.75;4969732;28;20790;-67
2021/10/24 09:43:42;;;;;;;5.30;2.90;;;;;;;7.85;100.00;99082.34;4975426;28;20210;-68
2021/10/24 09:46:14;;;;;;;4.60;3.70;;;;;;;8.01;100.00;99087.28;4929385;28;20245;-71
2021/10/24 09:48:44;;;;;;;3.77;3.33;;;;;;;8.18;100.00;99092.03;4939594;28;20205;-69
2021/10/24 09:51:16;;;;;;;6.73;6.03;;;;;;;8.12;100.00;99084.63;4948583;28;20621;-68
2021/10/24 09:53:47;;;;;;;7.10;4.47;;;;;;;8.54;100.00;99091.91;4966606;28;20722;-70
2021/10/24 09:56:18;;;;;;;3.67;2.73;;;;;;;8.64;100.00;99084.91;4957814;28;20421;-71
2021/10/24 09:58:48;;;;;;;3.47;3.17;;;;;;;8.82;100.00;99082.56;4962902;28;20236;-70
2021/10/24 10:01:19;;;;;;;5.27;3.47;;;;;;;8.79;98.31;99081.97;4938620;28;20214;-70
2021/10/24 10:03:49;;;;;;;4.13;2.60;;;;;;;8.79;95.26;99080.19;4943512;28;21987;-68
2021/10/24 10:06:18;;;;;;;3.70;3.10;;;;;;;8.77;94.00;99086.53;4952466;28;20240;-70
2021/10/24 10:08:46;;;;;;;3.17;2.67;;;;;;;8.94;93.24;99088.66;4956366;28;20700;-67
2021/10/24 10:11:20;;;;;;;2.23;2.13;;;;;;;9.10;85.26;99075.00;4951912;28;20217;-70
2021/10/24 10:13:53;;;;;;;3.37;2.73;;;;;;;9.00;88.59;99084.66;4967243;28;20628;-69
2021/10/24 10:16:30;;;;;;;2.37;2.13;;;;;;;9.06;87.95;99076.19;4965646;28;20229;-69
2021/10/24 10:19:04;;;;;;;4.33;2.00;;;;;;;9.29;86.46;99080.56;4934613;28;20225;-68
2021/10/24 10:21:34;;;;;;;7.27;3.83;;;;;;;9.58;91.06;99078.09;4956111;28;20348;-67
2021/10/24 10:24:03;;;;;;;4.27;2.40;;;;;;;9.59;86.21;99073.59;4972616;28;20618;-67
2021/10/24 10:26:35;;;;;;;2.70;2.43;;;;;;;9.63;83.09;99078.53;4959645;28;20234;-69
2021/10/24 10:29:05;;;;;;;2.47;2.23;;;;;;;9.78;80.78;99068.44;4961523;28;20217;-68
2021/10/24 10:31:35;;;;;;;3.90;3.50;;;;;;;9.87;79.26;99066.81;4969983;28;20304;-68
2021/10/24 10:34:05;;;;;;;5.27;2.90;;;;;;;9.82;78.57;99059.25;4941778;28;20218;-69
2021/10/24 10:36:57;;;;;;;5.53;4.10;;;;;;;9.70;77.37;99061.13;4958977;28;20248;-68
2021/10/24 10:39:45;;;;;;;6.50;3.83;;;;;;;9.68;73.92;99059.63;4909962;28;20245;-69
2021/10/24 10:42:50;;;;;;;7.20;3.77;;;;;;;9.64;75.06;99050.22;4942705;28;20254;-70
2021/10/24 10:45:37;;;;;;;3.90;3.50;;;;;;;9.58;73.33;99048.13;4963410;28;20602;-69
2021/10/24 10:48:08;;;;;;;3.83;3.47;;;;;;;9.74;73.32;99045.84;4960740;28;20210;-67
2021/10/24 10:50:47;;;;;;;4.80;3.83;;;;;;;9.92;72.15;99048.69;4942475;28;20494;-68
2021/10/24 10:53:40;;;;;;;2.93;2.47;;;;;;;10.07;72.08;99046.53;4962207;28;20622;-69
2021/10/24 10:56:20;;;;;;;2.40;2.17;;;;;;;10.11;69.69;99050.56;4955143;28;20599;-68
2021/10/24 10:58:51;;;;;;;7.40;4.93;;;;;;;10.04;70.30;99046.78;4961410;28;20237;-68
2021/10/24 11:01:21;;;;;;;2.77;2.40;;;;;;;10.41;71.23;99038.25;4968988;28;20246;-69
2021/10/24 11:03:53;;;;;;;3.03;2.60;;;;;;;10.50;68.21;99043.72;4936412;28;20660;-67
2021/10/24 11:06:49;;;;;;;5.30;3.33;;;;;;;10.66;66.36;99037.88;4960478;28;20272;-70
2021/10/24 11:09:46;;;;;;;6.67;3.47;;;;;;;10.69;66.24;99029.63;4956605;28;20202;-69
2021/10/24 11:12:37;;;;;;;2.97;2.67;;;;;;;10.56;65.23;99032.56;4962937;28;20209;-70
2021/10/24 11:15:19;;;;;;;2.87;2.30;;;;;;;10.80;64.86;99031.31;4958250;28;20320;-70
2021/10/24 11:17:48;;;;;;;2.63;2.43;;;;;;;10.96;63.67;99025.41;4970369;28;20208;-67
2021/10/24 11:20:23;;;;;;;2.30;2.10;;;;;;;11.24;63.81;99031.69;4938533;28;20225;-69
2021/10/24 11:23:02;;;;;;;5.23;3.17;;;;;;;11.40;64.52;99028.44;4973181;28;20217;-68
2021/10/24 11:25:48;;;;;;;4.23;1.93;;;;;;;11.61;60.07;99022.06;4959289;28;20599;-68
2021/10/24 11:28:19;;;;;;;4.23;3.83;;;;;;;11.61;60.56;99018.59;4971963;28;20206;-68
2021/10/24 11:31:01;;;;;;;5.50;4.27;;;;;;;11.62;59.41;99004.34;4961192;28;20460;-69
2021/10/24 11:33:44;;;;;;;4.60;4.07;;;;;;;11.73;59.26;99006.78;4967528;28;20430;-68
2021/10/24 11:36:19;;;;;;;5.13;3.47;;;;;;;11.73;57.97;99002.31;4937184;28;20299;-69
2021/10/24 11:38:47;;;;;;;4.20;3.20;;;;;;;11.69;58.22;99000.94;4972247;28;20228;-68